Time;durP1;ratioP1;P1;durP2;ratioP2;P2;SDS_P1;SDS_P2;PMS_P1;PMS_P2;Temp;Humidity;BMP_temperature;BMP_pressure;BME280_temperature;BME280_humidity;BME280_pressure;Samples;Min_cycle;Max_cycle;Signal;HPM_P1;HPM_P2
2021/12/01 00:03:36;;;;;;;12.27;6.75;;;2.30;99.90;;;;;;20749166;28;20092;-74
2021/12/01 00:13:38;;;;;;;14.82;6.15;;;2.50;99.90;;;;;;20747883;28;20038;-76
2021/12/01 00:23:40;;;;;;;10.68;5.78;;;2.30;99.90;;;;;;20749999;28;20065;-76
2021/12/01 00:33:41;;;;;;;11.90;5.25;;;2.40;99.90;;;;;;20770990;28;20037;-77
2021/12/01 00:43:42;;;;;;;10.20;5.95;;;2.50;99.90;;;;;;20779051;28;20377;-76
2021/12/01 00:53:44;;;;;;;11.75;6.90;;;2.60;99.90;;;;;;20780937;28;20045;-77
2021/12/01 01:03:45;;;;;;;10.25;6.10;;;2.60;99.90;;;;;;20778773;28;20034;-76
2021/12/01 01:24:05;;;;;;;11.35;6.25;;;2.70;99.90;;;;;;20813627;28;20165;-76
2021/12/01 01:34:06;;;;;;;11.90;6.88;;;2.60;99.90;;;;;;20807437;28;20391;-76
2021/12/01 01:44:07;;;;;;;15.13;6.10;;;2.80;99.90;;;;;;20797268;28;20076;-78
2021/12/01 01:54:09;;;;;;;18.65;8.00;;;2.80;99.90;;;;;;20800815;28;20091;-77
2021/12/01 02:04:13;;;;;;;16.23;8.70;;;2.90;99.90;;;;;;20805091;28;20495;-77
2021/12/01 02:14:16;;;;;;;14.52;7.05;;;2.90;99.90;;;;;;20785409;28;20040;-79
2021/12/01 02:24:23;;;;;;;20.55;8.10;;;2.80;99.90;;;;;;20768039;28;20077;-77
2021/12/01 02:34:25;;;;;;;21.77;7.82;;;2.90;99.90;;;;;;20751886;28;20038;-77
2021/12/01 02:44:27;;;;;;;14.10;7.18;;;2.90;99.90;;;;;;20752617;28;20100;-78
2021/12/01 02:54:29;;;;;;;12.55;6.38;;;2.90;99.90;;;;;;20751594;28;20045;-77
2021/12/01 03:04:31;;;;;;;16.10;6.95;;;2.80;99.90;;;;;;20752363;28;20033;-78
2021/12/01 03:14:32;;;;;;;13.40;6.03;;;2.90;99.90;;;;;;20751746;28;20064;-78
2021/12/01 03:24:33;;;;;;;10.57;4.90;;;3.00;99.90;;;;;;20752138;28;20034;-78
2021/12/01 03:34:35;;;;;;;8.70;4.88;;;3.00;99.90;;;;;;20755107;28;20396;-78
2021/12/01 03:44:36;;;;;;;5.35;3.47;;;3.20;99.90;;;;;;20751905;28;20034;-76
2021/12/01 03:54:36;;;;;;;6.68;2.50;;;3.40;99.90;;;;;;20748313;28;20050;-77
2021/12/01 04:04:37;;;;;;;;;;;3.60;99.90;;;;;;20747424;28;20120;-78
2021/12/01 04:14:38;;;;;;;4.10;1.45;;;3.80;99.90;;;;;;20750670;28;20253;-78
2021/12/01 04:24:39;;;;;;;3.25;2.08;;;3.90;99.90;;;;;;20752647;28;20030;-78
2021/12/01 04:34:40;;;;;;;5.82;2.88;;;3.70;99.90;;;;;;20750437;28;20515;-77
2021/12/01 04:44:41;;;;;;;;;;;3.60;99.90;;;;;;20746192;28;20112;-77
2021/12/01 04:54:42;;;;;;;3.50;2.53;;;3.70;99.90;;;;;;20743077;28;19917;-78
2021/12/01 05:04:42;;;;;;;;;;;3.70;99.90;;;;;;20745068;28;20354;-78
2021/12/01 05:14:43;;;;;;;5.03;2.00;;;3.60;99.90;;;;;;20747519;28;19913;-77
2021/12/01 05:24:44;;;;;;;;;;;3.60;99.90;;;;;;20762414;28;20320;-77
2021/12/01 05:34:45;;;;;;;1.90;1.23;;;3.50;99.90;;;;;;20760624;28;19963;-78
2021/12/01 05:44:45;;;;;;;;;;;3.60;99.90;;;;;;20758471;28;20053;-77
2021/12/01 05:54:50;;;;;;;1.02;0.73;;;3.90;99.90;;;;;;20758582;28;19919;-78
2021/12/01 06:04:51;;;;;;;1.13;0.90;;;3.90;99.90;;;;;;20761320;28;20034;-78
2021/12/01 06:14:53;;;;;;;;;;;4.00;99.90;;;;;;20761645;28;20042;-75
2021/12/01 06:24:53;;;;;;;1.73;1.37;;;4.00;99.90;;;;;;20767685;28;20523;-77
2021/12/01 06:34:54;;;;;;;;;;;3.80;99.90;;;;;;20766444;28;20093;-77
2021/12/01 06:44:55;;;;;;;4.22;1.85;;;3.50;99.90;;;;;;20764194;28;19940;-75
2021/12/01 06:54:56;;;;;;;;;;;3.10;99.90;;;;;;20766216;28;20040;-76
2021/12/01 07:04:57;;;;;;;9.67;4.77;;;3.20;99.90;;;;;;20769757;28;20396;-76
2021/12/01 07:14:58;;;;;;;;;;;3.30;99.90;;;;;;20770110;28;20041;-75
2021/12/01 07:24:59;;;;;;;10.20;5.60;;;3.30;99.90;;;;;;20752279;28;20315;-78
2021/12/01 07:34:59;;;;;;;;;;;4.00;99.90;;;;;;20751977;28;20034;-78
2021/12/01 07:45:01;;;;;;;10.05;5.88;;;3.60;99.90;;;;;;20751370;28;20000;-78
2021/12/01 07:55:03;;;;;;;12.40;7.82;;;3.10;99.90;;;;;;20753802;28;20531;-77
2021/12/01 08:05:05;;;;;;;15.45;9.02;;;3.00;99.90;;;;;;20774130;28;20030;-78
2021/12/01 08:15:08;;;;;;;15.15;8.18;;;2.90;99.90;;;;;;20750696;28;20444;-78
2021/12/01 08:25:09;;;;;;;12.25;6.30;;;3.10;99.90;;;;;;20744946;28;20984;-78
2021/12/01 08:35:09;;;;;;;15.13;6.20;;;3.10;99.90;;;;;;20745281;28;20109;-77
2021/12/01 08:45:10;;;;;;;;;;;3.20;99.90;;;;;;20750582;28;20369;-78
2021/12/01 08:55:11;;;;;;;11.57;6.93;;;3.50;99.90;;;;;;20756415;28;19917;-78
2021/12/01 09:05:12;;;;;;;9.05;5.88;;;3.90;99.90;;;;;;20758729;28;20038;-78
2021/12/01 09:15:14;;;;;;;;;;;3.70;99.90;;;;;;20759811;28;20072;-77
2021/12/01 09:25:15;;;;;;;6.60;3.67;;;3.90;99.90;;;;;;20758205;28;19917;-77
2021/12/01 09:35:16;;;;;;;12.90;7.47;;;4.30;99.90;;;;;;20757165;28;20560;-77
2021/12/01 09:45:21;;;;;;;12.75;5.60;;;4.60;99.90;;;;;;20759778;28;20021;-77
2021/12/01 09:55:22;;;;;;;10.15;6.22;;;4.50;99.90;;;;;;20758801;28;20103;-77
2021/12/01 10:05:51;;;;;;;9.38;5.97;;;4.40;99.90;;;;;;20781309;28;20380;-75
2021/12/01 10:15:54;;;;;;;13.82;6.50;;;4.70;99.90;;;;;;20764466;28;20095;-77
2021/12/01 10:25:56;;;;;;;12.00;7.07;;;5.20;99.90;;;;;;20762566;28;20464;-78
2021/12/01 10:36:02;;;;;;;12.00;7.97;;;5.30;99.90;;;;;;20769164;28;20466;-75
2021/12/01 10:46:09;;;;;;;14.20;7.20;;;4.70;99.90;;;;;;20757800;28;20029;-77
2021/12/01 10:56:10;;;;;;;15.57;8.35;;;4.90;99.90;;;;;;20760681;28;20488;-78
2021/12/01 11:06:20;;;;;;;20.77;11.00;;;5.20;99.90;;;;;;20758599;28;20118;-75
2021/12/01 11:16:22;;;;;;;21.58;8.02;;;5.10;99.90;;;;;;20758703;28;20845;-77
2021/12/01 11:26:26;;;;;;;16.00;8.85;;;4.50;99.90;;;;;;20756004;28;20143;-77
2021/12/01 11:36:34;;;;;;;12.07;7.95;;;4.50;99.90;;;;;;20752114;28;20176;-76
2021/12/01 11:46:35;;;;;;;12.88;8.38;;;4.60;99.90;;;;;;20749329;28;20037;-76
2021/12/01 11:56:37;;;;;;;11.38;6.88;;;4.50;99.90;;;;;;20750496;28;20111;-78
2021/12/01 12:06:46;;;;;;;47.05;13.77;;;4.70;99.90;;;;;;20748711;28;20038;-77
2021/12/01 12:17:12;;;;;;;303.10;82.72;;;4.70;99.90;;;;;;20760391;28;20061;-78
2021/12/01 12:27:33;;;;;;;104.93;34.55;;;4.90;99.90;;;;;;20760520;28;20415;-75
2021/12/01 12:37:35;;;;;;;21.13;10.77;;;5.10;99.90;;;;;;20758203;28;20117;-76
2021/12/01 12:47:39;;;;;;;15.70;8.02;;;5.00;99.90;;;;;;20811665;28;20082;-77
2021/12/01 12:57:56;;;;;;;33.42;16.92;;;4.80;99.90;;;;;;20744063;28;20038;-78
2021/12/01 13:07:59;;;;;;;12.82;6.43;;;5.00;99.90;;;;;;20744904;28;20041;-77
2021/12/01 13:18:12;;;;;;;10.07;6.65;;;5.00;99.90;;;;;;20741764;28;20037;-75
2021/12/01 13:28:27;;;;;;;9.18;4.50;;;5.00;99.90;;;;;;20741239;28;20038;-75
2021/12/01 13:38:30;;;;;;;7.72;5.32;;;5.30;99.90;;;;;;20747768;28;20500;-76
2021/12/01 13:48:31;;;;;;;464.20;176.75;;;5.50;99.90;;;;;;20754698;28;20029;-76
2021/12/01 13:58:31;;;;;;;;;;;5.80;99.90;;;;;;20754310;28;20120;-75
2021/12/01 14:08:41;;;;;;;9.27;5.00;;;5.50;99.90;;;;;;20753386;28;19949;-75
2021/12/01 14:18:44;;;;;;;6.35;3.83;;;5.90;99.90;;;;;;20783323;23;20313;-80
2021/12/01 14:28:55;;;;;;;2.53;1.55;;;6.30;99.90;;;;;;20770828;28;20121;-80
2021/12/01 14:38:56;;;;;;;1.43;0.80;;;6.50;99.90;;;;;;20768920;28;20049;-79
2021/12/01 14:49:02;;;;;;;2.28;0.90;;;6.90;99.90;;;;;;20769960;28;20296;-80
2021/12/01 14:59:04;;;;;;;8.07;0.43;;;6.90;99.90;;;;;;20772841;28;20042;-80
2021/12/01 15:09:05;;;;;;;0.77;0.50;;;6.80;99.90;;;;;;20769818;28;20484;-80
2021/12/01 15:19:14;;;;;;;;;;;6.90;99.90;;;;;;20776143;28;20045;-78
2021/12/01 15:29:20;;;;;;;1.05;0.85;;;6.80;99.90;;;;;;20815311;28;19909;-79
2021/12/01 15:39:25;;;;;;;1.48;0.85;;;6.80;99.90;;;;;;20835898;28;20504;-79
2021/12/01 15:49:26;;;;;;;1.25;0.52;;;6.80;99.90;;;;;;20859249;28;20112;-79
2021/12/01 15:59:27;;;;;;;0.40;0.40;;;6.80;99.90;;;;;;20839287;28;20033;-78
2021/12/01 16:09:31;;;;;;;0.70;0.70;;;6.80;99.90;;;;;;20848949;28;20399;-79
2021/12/01 16:19:32;;;;;;;7.80;3.53;;;6.90;99.90;;;;;;20847600;28;20044;-80
2021/12/01 16:29:34;;;;;;;3.00;1.73;;;6.80;99.90;;;;;;20841790;28;20236;-80
2021/12/01 16:39:34;;;;;;;6.85;2.97;;;6.80;99.90;;;;;;20842482;28;20040;-79
2021/12/01 16:49:35;;;;;;;4.43;2.10;;;6.80;99.90;;;;;;20843820;28;20030;-79
2021/12/01 16:59:37;;;;;;;13.03;6.33;;;6.80;99.90;;;;;;20846056;28;20044;-78
2021/12/01 17:09:39;;;;;;;3.10;1.80;;;6.90;99.90;;;;;;20841947;28;20076;-77
2021/12/01 17:19:42;;;;;;;1.50;1.00;;;6.80;99.90;;;;;;20853171;28;20065;-78
2021/12/01 17:29:43;;;;;;;3.88;0.98;;;6.80;99.90;;;;;;20851958;28;20091;-78
2021/12/01 17:39:45;;;;;;;2.20;1.02;;;6.70;99.90;;;;;;20851425;28;20041;-78
2021/12/01 17:49:46;;;;;;;1.67;0.95;;;6.70;99.90;;;;;;20849495;28;20071;-78
2021/12/01 17:59:47;;;;;;;1.50;0.97;;;6.90;99.90;;;;;;20851575;28;20029;-79
2021/12/01 18:09:48;;;;;;;0.97;0.80;;;6.80;99.90;;;;;;20848063;28;20030;-78
2021/12/01 18:19:49;;;;;;;3.10;0.90;;;7.00;99.90;;;;;;20845777;28;20047;-77
2021/12/01 18:29:50;;;;;;;2.33;0.98;;;7.30;99.90;;;;;;20846920;28;20026;-80
2021/12/01 18:39:51;;;;;;;0.40;0.40;;;7.30;99.90;;;;;;20851705;28;20061;-81
2021/12/01 18:49:52;;;;;;;0.77;0.50;;;7.20;99.90;;;;;;20848959;28;20060;-80
2021/12/01 18:59:53;;;;;;;1.23;0.85;;;7.00;99.90;;;;;;20852058;28;20040;-81
2021/12/01 19:09:54;;;;;;;0.73;0.57;;;6.90;99.90;;;;;;20849708;28;20535;-80
2021/12/01 19:19:56;;;;;;;0.73;0.40;;;6.70;99.90;;;;;;20847503;28;20124;-79
2021/12/01 19:29:58;;;;;;;2.97;1.98;;;6.70;99.90;;;;;;20848330;28;20083;-79
2021/12/01 19:39:59;;;;;;;4.57;1.17;;;6.50;99.90;;;;;;20845979;28;20032;-82
2021/12/01 19:50:01;;;;;;;2.47;1.30;;;6.30;99.90;;;;;;20856374;28;20418;-81
2021/12/01 20:00:13;;;;;;;1.20;0.93;;;6.30;99.90;;;;;;20842729;28;20080;-82
2021/12/01 20:10:17;;;;;;;1.52;0.80;;;6.20;99.90;;;;;;20842246;28;20041;-82
2021/12/01 20:20:20;;;;;;;1.33;0.80;;;6.20;99.90;;;;;;20762253;22;20045;-78
2021/12/01 20:30:22;;;;;;;1.45;1.00;;;6.20;99.90;;;;;;20751046;28;20033;-79
2021/12/01 20:40:27;;;;;;;5.50;1.50;;;6.20;99.90;;;;;;20752221;28;20040;-78
2021/12/01 21:11:17;;;;;;;13.18;5.60;;;6.00;99.90;;;;;;20726952;28;20511;-79
2021/12/01 21:21:18;;;;;;;1.05;0.85;;;5.90;99.90;;;;;;20726454;28;20038;-76
2021/12/01 21:31:22;;;;;;;1.92;0.90;;;5.80;99.90;;;;;;20721740;28;20411;-77
2021/12/01 21:41:24;;;;;;;1.88;1.02;;;5.80;99.90;;;;;;20723775;28;20068;-76
2021/12/01 21:51:27;;;;;;;8.25;2.20;;;5.70;99.90;;;;;;20724637;28;20656;-78
2021/12/01 22:01:28;;;;;;;13.50;4.53;;;5.70;99.90;;;;;;20729702;28;20433;-77
2021/12/01 22:11:29;;;;;;;6.60;2.40;;;5.60;99.90;;;;;;20731110;28;20488;-78
2021/12/01 22:21:39;;;;;;;1.55;0.80;;;5.50;99.90;;;;;;20717384;28;20060;-76
2021/12/01 22:31:44;;;;;;;2.78;0.50;;;5.50;99.90;;;;;;20715926;28;20030;-77
2021/12/01 22:41:45;;;;;;;2.22;0.73;;;5.40;99.90;;;;;;20714895;28;20045;-77
2021/12/01 22:51:46;;;;;;;0.85;0.60;;;5.40;99.90;;;;;;20721219;28;20037;-77
2021/12/01 23:01:52;;;;;;;3.03;0.50;;;5.50;99.90;;;;;;20752191;28;20058;-77
2021/12/01 23:11:53;;;;;;;0.47;0.32;;;5.30;99.90;;;;;;20787427;28;20029;-78
2021/12/01 23:21:56;;;;;;;1.45;0.80;;;5.20;99.90;;;;;;20799712;28;20097;-77
2021/12/01 23:31:56;;;;;;;1.05;0.60;;;5.10;99.90;;;;;;20797585;28;20033;-76
2021/12/01 23:41:57;;;;;;;;;;;4.90;99.90;;;;;;20791700;28;20135;-78
2021/12/01 23:52:06;;;;;;;3.70;0.65;;;4.90;99.90;;;;;;20785859;28;19955;-77
